Ana Sayfa
METAR-TAF:

METAR-TAF

Havaalanları :

Sanya Phoenix Uluslararası Havalimanı

Sanya, Çin

Enlem: 18-18N, Boylam: 109-24E, yükseklik: 27 m

Güncel hava durumu gözlemi

Rapor saat 09:00 UTC de 17 dakika önce yapıldı.
Rüzgar güney/güneybatıdan 8 kt, güney ve batı arasında değişken
Sıcaklık 26°C
Nem 74%
Basınç 1014 hPa
Görüş mesafesi 10 km veya daha fazla
2000 ft yükseklikte az bulutlu

METAR: ZJSY 250900Z 21004MPS 180V260 9999 FEW020 26/21 Q1014 NOSIG

Saat: 17:17 (09:17 UTC)

Tahmin

Rapor saat 03:02 UTC de 6 saat ve 15 dakika önce yapıldı.
Ayın 25'si saat 06 UTC'den ayın 26'si saat 06 UTC'ye kadar geçerli Tahmin
Rüzgar doğudan 8 kt
Görüş mesafesi 10 km veya daha fazla
2000 ft yükseklikte az bulutlu

TAF: ZJSY 250302Z 2506/2606 09004MPS 9999 FEW020 TX29/2506Z TN20/2521Z

4.000'den fazla havaalanı için hava durumu gözlemleri ve tahminleri (METAR ve TAF raporları).

Kullanılabilir istasyonlar harita üzerinde sarı ve kırmızı noktalarla gösterilir.

İstasyonun adını görmek için fareyi noktanın üzerinde gezdirin.

Sonrasında hava gözlem ve tahminlerini görmek için tıklayın.

Haritayı değiştirmek için: yaklaştırmak için siyah artı işaretli yeşil düğmeye ve uzaklaştırmak için de eksi işaretli düğmeye hızla tıklayın; bitişik haritalar için yeşil okları kullanın.


METAR-TAF: